Spirit Of America — WDB8298 — position and weather

sailwx.info

Track history (hours):
 
Tides and Currents Weather Stations Pressure Air Temp Water Temp Dewpoint Dewpoint Depression Visibility Wind Speed Wind Dir Waves Ship Positions

Spirit Of America

Owner: CITY OF NEW YORK, Brooklyn, NY. More information available from US FCC via Universal Licensing System and Coast Guard Vessel Documentation Center.

Last reported at 2018-Feb-18 01:30 UTC. Time now 2018-Feb-18 01:49 UTC.
Position N 40°42' W 074°01'.

Length 104 m; draft 4 m.

Type: Passenger vessel. MMSI: 366902394.

Date/timePositionNaut miles runAvg speedWind from/ knotsBaromVisibWave heightAir tempDewpointWater temp
2018-Feb-18 01:30N 40°42' W 074°01'4 8.6
2018-Feb-18 01:00N 40°39' W 074°04'0 0.1
2018-Feb-18 00:30N 40°39' W 074°04'4 8.6
2018-Feb-18 00:00N 40°42' W 074°01'4 8.6
2018-Feb-17 23:30N 40°39' W 074°04'0 0.0
2018-Feb-17 23:00N 40°39' W 074°04'4 8.6
2018-Feb-17 22:30N 40°42' W 074°01'4 8.5
2018-Feb-17 22:00N 40°39' W 074°04'0 0.1
2018-Feb-17 21:30N 40°39' W 074°04'4 8.6
2018-Feb-17 21:00N 40°42' W 074°01'4 8.6
2018-Feb-17 20:30N 40°39' W 074°04'0 0.1
2018-Feb-17 20:00N 40°39' W 074°04'4 8.7
2018-Feb-17 19:30N 40°42' W 074°01'4 8.6
2018-Feb-17 19:01N 40°39' W 074°04'0 0.0
2018-Feb-17 18:30N 40°39' W 074°04'4 8.6
2018-Feb-17 18:00N 40°42' W 074°01'4 8.6
2018-Feb-17 17:30N 40°39' W 074°04'0 0.0
2018-Feb-17 17:00N 40°39' W 074°04'4 8.7
2018-Feb-17 16:30N 40°42' W 074°01'4 8.4
2018-Feb-17 16:00N 40°39' W 074°04'4 8.8
2018-Feb-17 15:31N 40°42' W 074°01'4 8.4
2018-Feb-17 15:00N 40°39' W 074°04'4 8.7
2018-Feb-17 14:30N 40°42' W 074°01'4 8.6
2018-Feb-17 14:00N 40°39' W 074°04'4 8.6
2018-Feb-17 13:31N 40°42' W 074°01'4 8.5
2018-Feb-17 13:00N 40°39' W 074°04'0 0.1
2018-Feb-17 12:30N 40°39' W 074°04'0 0.0
2018-Feb-17 12:00N 40°39' W 074°04'0 0.0
2018-Feb-17 11:31N 40°39' W 074°04'0 0.0
2018-Feb-17 10:59N 40°39' W 074°04'0 0.0
2018-Feb-17 10:29N 40°39' W 074°04'0 0.0
2018-Feb-17 09:59N 40°39' W 074°04'0 0.0
2018-Feb-17 09:29N 40°39' W 074°04'0 0.0
2018-Feb-17 08:59N 40°39' W 074°04'0 0.0
2018-Feb-17 08:29N 40°39' W 074°04'0 0.0
2018-Feb-17 07:59N 40°39' W 074°04'0 0.0
2018-Feb-17 07:29N 40°39' W 074°04'0 0.0
2018-Feb-17 06:59N 40°39' W 074°04'0 0.0
2018-Feb-17 06:29N 40°39' W 074°04'0 0.0
2018-Feb-17 05:59N 40°39' W 074°04'0 0.0
2018-Feb-17 05:30N 40°39' W 074°04'0 0.0
2018-Feb-17 05:00N 40°39' W 074°04'4 8.5
2018-Feb-17 04:30N 40°42' W 074°01'4 8.6
2018-Feb-17 04:00N 40°39' W 074°04'0 0.0
2018-Feb-17 03:31N 40°39' W 074°04'4 8.6
2018-Feb-17 03:00N 40°42' W 074°01'4 8.5
2018-Feb-17 02:30N 40°39' W 074°04'0 0.0
2018-Feb-17 02:01N 40°39' W 074°04'0 0.0
2018-Feb-17 01:31N 40°39' W 074°04'4 8.5
2018-Feb-17 01:00N 40°42' W 074°01'4 8.5
2018-Feb-17 00:31N 40°39' W 074°04'1 3.0
2018-Feb-17 00:01N 40°40' W 074°03'1 1.8
2018-Feb-16 23:31N 40°41' W 074°02'1 1.2
2018-Feb-16 23:00N 40°40' W 074°03'2 3.3
2018-Feb-16 22:31N 40°41' W 074°02'3 6.6
2018-Feb-16 22:00N 40°39' W 074°04'4 7.4
2018-Feb-16 21:31N 40°42' W 074°01'4 7.7
2018-Feb-16 21:00N 40°39' W 074°04'0 0.3
2018-Feb-16 20:31N 40°39' W 074°04'0 0.3
2018-Feb-16 20:00N 40°39' W 074°04'0 0.0
2018-Feb-16 19:30N 40°39' W 074°04'0 0.0
2018-Feb-16 19:00N 40°39' W 074°04'4 8.7
2018-Feb-16 18:30N 40°42' W 074°01'4 8.6
2018-Feb-16 18:00N 40°39' W 074°04'0 0.0
2018-Feb-16 17:30N 40°39' W 074°04'4 8.6
2018-Feb-16 17:00N 40°42' W 074°01'4 8.7
2018-Feb-16 16:30N 40°39' W 074°04'0 0.0
2018-Feb-16 16:00N 40°39' W 074°04'4 8.7
2018-Feb-16 15:30N 40°42' W 074°01'4 8.7
2018-Feb-16 15:01N 40°39' W 074°04'4 7.9
2018-Feb-16 14:31N 40°42' W 074°01'1 2.9
2018-Feb-16 14:01N 40°41' W 074°02'1 1.0
2018-Feb-16 13:30N 40°40' W 074°03'1 2.4
2018-Feb-16 13:00N 40°41' W 074°02'3 5.5
2018-Feb-16 12:30N 40°39' W 074°04'4 7.6
2018-Feb-16 12:01N 40°42' W 074°01'4 8.3
2018-Feb-16 11:30N 40°39' W 074°04'0 0.0
2018-Feb-16 10:56N 40°39' W 074°04'0 0.0
2018-Feb-16 10:30N 40°39' W 074°04'0 0.0
2018-Feb-16 10:00N 40°39' W 074°04'0 0.0
2018-Feb-16 09:30N 40°39' W 074°04'0 0.0
2018-Feb-16 08:58N 40°39' W 074°04'0 0.0
2018-Feb-16 08:28N 40°39' W 074°04'0 0.0
2018-Feb-16 07:58N 40°39' W 074°04'0 0.0
2018-Feb-16 07:28N 40°39' W 074°04'0 0.0
2018-Feb-16 06:58N 40°39' W 074°04'0 0.0
2018-Feb-16 06:28N 40°39' W 074°04'0 0.0
2018-Feb-16 05:58N 40°39' W 074°04'0 0.1
2018-Feb-16 05:31N 40°39' W 074°04'0 0.1
2018-Feb-16 05:00N 40°39' W 074°04'4 8.6
2018-Feb-16 04:30N 40°42' W 074°01'4 8.6
2018-Feb-16 04:01N 40°39' W 074°04'0 0.1
2018-Feb-16 03:31N 40°39' W 074°04'4 8.6
2018-Feb-16 03:01N 40°42' W 074°01'4 8.4
2018-Feb-16 02:30N 40°39' W 074°04'0 0.1
2018-Feb-16 02:00N 40°39' W 074°04'0 0.1
2018-Feb-16 01:30N 40°39' W 074°04'4 8.6
2018-Feb-16 01:00N 40°42' W 074°01'4 8.5
2018-Feb-16 00:30N 40°39' W 074°04'2 4.3
2018-Feb-16 00:00N 40°40' W 074°03'1 1.8
2018-Feb-15 23:31N 40°41' W 074°02'2 3.7
2018-Feb-15 23:00N 40°40' W 074°03'2 4.8
2018-Feb-15 22:31N 40°42' W 074°02'3 6.8
2018-Feb-15 22:01N 40°39' W 074°04'4 7.6
2018-Feb-15 21:31N 40°42' W 074°01'4 1.9
2018-Feb-15 19:25N 40°39' W 074°04'4 7.6
2018-Feb-15 18:52N 40°42' W 074°01'411.9
2018-Feb-15 18:30N 40°39' W 074°04'4 8.6
2018-Feb-15 18:00N 40°42' W 074°01'4 8.5
2018-Feb-15 17:30N 40°39' W 074°04'4 8.6
2018-Feb-15 17:00N 40°42' W 074°01'4 8.5
2018-Feb-15 16:30N 40°39' W 074°04'4 8.6
2018-Feb-15 16:00N 40°42' W 074°01'4 8.6
2018-Feb-15 15:30N 40°39' W 074°04'0 0.0
2018-Feb-15 15:00N 40°39' W 074°04'1 2.8
2018-Feb-15 14:30N 40°40' W 074°03'2 3.4
2018-Feb-15 14:00N 40°41' W 074°02'1 2.8
2018-Feb-15 13:30N 40°40' W 074°03'1 2.5
2018-Feb-15 13:01N 40°41' W 074°02'2 4.9
2018-Feb-15 12:31N 40°39' W 074°04'4 7.4
2018-Feb-15 12:01N 40°42' W 074°01'4 8.1
2018-Feb-15 11:30N 40°39' W 074°04'0 0.0
2018-Feb-15 11:00N 40°39' W 074°04'0 0.0
2018-Feb-15 10:30N 40°39' W 074°04'0 0.0
2018-Feb-15 10:00N 40°39' W 074°04'0 0.0
2018-Feb-15 09:30N 40°39' W 074°04'0 0.0
2018-Feb-15 08:59N 40°39' W 074°04'0 0.0
2018-Feb-15 08:29N 40°39' W 074°04'0 0.0
2018-Feb-15 07:59N 40°39' W 074°04'0 0.0
2018-Feb-15 07:29N 40°39' W 074°04'0 0.0
2018-Feb-15 06:59N 40°39' W 074°04'0 0.0
2018-Feb-15 06:29N 40°39' W 074°04'0 0.0
2018-Feb-15 05:59N 40°39' W 074°04'0 0.0
2018-Feb-15 05:30N 40°39' W 074°04'0 0.0
2018-Feb-15 05:00N 40°39' W 074°04'4 8.5
2018-Feb-15 04:30N 40°42' W 074°01'4 8.5
2018-Feb-15 04:00N 40°39' W 074°04'0 0.1
2018-Feb-15 03:30N 40°39' W 074°04'4 8.6
2018-Feb-15 03:00N 40°42' W 074°01'4 8.5
2018-Feb-15 02:30N 40°39' W 074°04'0 0.1
2018-Feb-15 02:00N 40°39' W 074°04'0 0.0
2018-Feb-15 01:30N 40°39' W 074°04'4 8.5
2018-Feb-15 01:00N 40°42' W 074°01'4 8.6
2018-Feb-15 00:30N 40°39' W 074°04'4 8.6
2018-Feb-15 00:00N 40°42' W 074°01'2 3.0
2018-Feb-14 23:30N 40°41' W 074°02'1 2.9
2018-Feb-14 23:00N 40°40' W 074°03'2 4.4
2018-Feb-14 22:30N 40°42' W 074°02'3 6.5
2018-Feb-14 22:00N 40°39' W 074°04'4 7.7
2018-Feb-14 21:31N 40°42' W 074°01'4 8.2
2018-Feb-14 21:01N 40°39' W 074°04'0 0.0
2018-Feb-14 20:31N 40°39' W 074°04'0 0.0
2018-Feb-14 20:01N 40°39' W 074°04'0 0.0
2018-Feb-14 19:31N 40°39' W 074°04'0 0.0
2018-Feb-14 19:01N 40°39' W 074°04'0 0.0
2018-Feb-14 18:30N 40°39' W 074°04'4 8.7
2018-Feb-14 18:00N 40°42' W 074°01'4 8.5
2018-Feb-14 17:30N 40°39' W 074°04'4 7.7
2018-Feb-14 16:57N 40°42' W 074°01'4 9.7
2018-Feb-14 16:30N 40°39' W 074°04'4 8.7
2018-Feb-14 16:00N 40°42' W 074°01'4 8.7
2018-Feb-14 15:31N 40°39' W 074°04'0 0.0
2018-Feb-14 15:00N 40°39' W 074°04'2 3.8
2018-Feb-14 14:30N 40°40' W 074°03'1 1.8
2018-Feb-14 14:01N 40°41' W 074°02'1 2.4
2018-Feb-14 13:31N 40°40' W 074°03'2 3.2
2018-Feb-14 13:00N 40°41' W 074°02'3 5.8
2018-Feb-14 12:30N 40°39' W 074°04'4 8.0
2018-Feb-14 12:00N 40°42' W 074°01'4 8.5
2018-Feb-14 11:30N 40°39' W 074°04'0 0.0
2018-Feb-14 11:00N 40°39' W 074°04'0 0.0
2018-Feb-14 10:30N 40°39' W 074°04'0 0.0
2018-Feb-14 10:00N 40°39' W 074°04'0 0.0
2018-Feb-14 09:30N 40°39' W 074°04'0 0.1
2018-Feb-14 08:59N 40°39' W 074°04'0 0.0
2018-Feb-14 08:29N 40°39' W 074°04'0 0.0
2018-Feb-14 07:59N 40°39' W 074°04'0 0.0
2018-Feb-14 07:29N 40°39' W 074°04'0 0.0
2018-Feb-14 06:59N 40°39' W 074°04'0 0.0
2018-Feb-14 06:29N 40°39' W 074°04'0 0.0
2018-Feb-14 05:59N 40°39' W 074°04'0 0.0
2018-Feb-14 05:29N 40°39' W 074°04'0 0.0
2018-Feb-14 04:57N 40°39' W 074°04'4 9.8
2018-Feb-14 04:30N 40°42' W 074°01'4 8.6
2018-Feb-14 04:01N 40°39' W 074°04'0 0.0
2018-Feb-14 03:31N 40°39' W 074°04'4 8.6
2018-Feb-14 03:00N 40°42' W 074°01'4 8.5
2018-Feb-14 02:30N 40°39' W 074°04'0 0.0
2018-Feb-14 02:00N 40°39' W 074°04'0 0.0
2018-Feb-14 01:30N 40°39' W 074°04'4 8.6
2018-Feb-14 01:00N 40°42' W 074°01'4 8.5
2018-Feb-14 00:30N 40°39' W 074°04'3 6.8
2018-Feb-14 00:00N 40°41' W 074°02'1 1.3
2018-Feb-13 23:30N 40°41' W 074°02'1 2.0
2018-Feb-13 23:00N 40°40' W 074°03'2 3.6
2018-Feb-13 22:31N 40°42' W 074°02'3 6.2
2018-Feb-13 22:00N 40°39' W 074°04'0 0.5
2018-Feb-13 21:01N 40°39' W 074°04'0 0.1
2018-Feb-13 20:30N 40°39' W 074°04'0 0.1
2018-Feb-13 20:01N 40°39' W 074°04'0 0.1
2018-Feb-13 19:30N 40°39' W 074°04'0 0.0
2018-Feb-13 19:00N 40°39' W 074°04'0 0.0
2018-Feb-13 18:30N 40°39' W 074°04'4 8.6
2018-Feb-13 18:00N 40°42' W 074°01'4 8.6
2018-Feb-13 17:31N 40°39' W 074°04'4 8.5
2018-Feb-13 17:00N 40°42' W 074°01'4 8.6
2018-Feb-13 16:30N 40°39' W 074°04'0 0.3
2018-Feb-13 15:48N 40°39' W 074°04'412.9
2018-Feb-13 15:29N 40°42' W 074°01'4 9.0
2018-Feb-13 15:00N 40°39' W 074°04'2 3.8
2018-Feb-13 14:31N 40°40' W 074°03'1 1.4
2018-Feb-13 14:00N 40°41' W 074°02'1 1.3
2018-Feb-13 13:30N 40°40' W 074°03'1 1.9
2018-Feb-13 13:01N 40°41' W 074°02'2 3.2
2018-Feb-13 12:31N 40°40' W 074°03'2 4.2
2018-Feb-13 12:00N 40°41' W 074°02'3 3.7
2018-Feb-13 11:04N 40°39' W 074°04'0 1.6
2018-Feb-13 11:01N 40°39' W 074°04'1 1.5
2018-Feb-13 10:31N 40°38' W 074°04'1 1.6
2018-Feb-13 10:00N 40°39' W 074°04'0 0.0
2018-Feb-13 09:30N 40°39' W 074°04'0 0.1
2018-Feb-13 08:59N 40°39' W 074°04'0 0.0
2018-Feb-13 08:29N 40°39' W 074°04'0 0.0
2018-Feb-13 07:56N 40°39' W 074°04'0 0.0
2018-Feb-13 07:29N 40°39' W 074°04'0 0.0
2018-Feb-13 06:59N 40°39' W 074°04'0 0.0
2018-Feb-13 06:29N 40°39' W 074°04'0 0.0
2018-Feb-13 05:59N 40°39' W 074°04'0 0.0
2018-Feb-13 05:29N 40°39' W 074°04'0 0.0
2018-Feb-13 05:00N 40°39' W 074°04'4 8.7
2018-Feb-13 04:31N 40°42' W 074°01'4 8.6
2018-Feb-13 04:00N 40°39' W 074°04'0 0.0
2018-Feb-13 03:30N 40°39' W 074°04'4 8.6
2018-Feb-13 03:00N 40°42' W 074°01'4 8.6
2018-Feb-13 02:31N 40°39' W 074°04'0 0.0
2018-Feb-13 02:01N 40°39' W 074°04'0 0.0
2018-Feb-13 01:31N 40°39' W 074°04'4 8.6
2018-Feb-13 01:00N 40°42' W 074°01'4 8.5
2018-Feb-13 00:30N 40°39' W 074°04'3 5.0
2018-Feb-13 00:00N 40°41' W 074°02'1 2.2
2018-Feb-12 23:30N 40°40' W 074°03'1 1.7
2018-Feb-12 23:00N 40°41' W 074°03'0 0.7
2018-Feb-12 22:31N 40°41' W 074°02'1 2.9
2018-Feb-12 22:00N 40°39' W 074°03'2 4.0
2018-Feb-12 21:30N 40°41' W 074°02'3 6.3
2018-Feb-12 21:00N 40°39' W 074°04'0 0.0
2018-Feb-12 20:30N 40°39' W 074°04'0 0.0
2018-Feb-12 20:00N 40°39' W 074°04'0 0.0
2018-Feb-12 19:30N 40°39' W 074°04'0 0.0
2018-Feb-12 19:00N 40°39' W 074°04'0 0.0
2018-Feb-12 18:31N 40°39' W 074°04'4 6.8
2018-Feb-12 17:53N 40°42' W 074°01'411.4
2018-Feb-12 17:30N 40°39' W 074°04'4 6.8
2018-Feb-12 16:53N 40°42' W 074°01'411.3
2018-Feb-12 16:31N 40°39' W 074°04'0 0.0
2018-Feb-12 16:00N 40°39' W 074°04'0 0.0
2018-Feb-12 15:31N 40°39' W 074°04'0 0.0
2018-Feb-12 15:01N 40°39' W 074°04'2 4.5
2018-Feb-12 14:30N 40°40' W 074°03'1 1.3
2018-Feb-12 14:00N 40°41' W 074°02'1 2.8
2018-Feb-12 13:30N 40°40' W 074°03'1 2.9
2018-Feb-12 13:01N 40°41' W 074°02'3 5.6
2018-Feb-12 12:30N 40°39' W 074°04'4 8.2
2018-Feb-12 12:01N 40°42' W 074°01'4 8.4
2018-Feb-12 11:30N 40°39' W 074°04'0 0.0
2018-Feb-12 11:00N 40°39' W 074°04'0 0.0
2018-Feb-12 10:30N 40°39' W 074°04'0 0.0
2018-Feb-12 10:00N 40°39' W 074°04'0 0.0
2018-Feb-12 09:30N 40°39' W 074°04'0 0.0
2018-Feb-12 09:00N 40°39' W 074°04'0 0.0
2018-Feb-12 05:24N 40°39' W 074°04'410.8
2018-Feb-12 05:00N 40°42' W 074°01'4 8.4
2018-Feb-12 04:30N 40°39' W 074°04'4 8.7
2018-Feb-12 04:00N 40°42' W 074°01'4 8.7
2018-Feb-12 03:30N 40°39' W 074°04'0 0.1
2018-Feb-12 03:01N 40°39' W 074°04'4 8.6
2018-Feb-12 02:30N 40°42' W 074°01'4 8.6
2018-Feb-12 02:01N 40°39' W 074°04'4 8.6
2018-Feb-12 01:30N 40°42' W 074°01'4 8.5
2018-Feb-12 01:00N 40°39' W 074°04'0 0.0
2018-Feb-12 00:30N 40°39' W 074°04'4 8.5
2018-Feb-12 00:00N 40°42' W 074°01'4 8.4
2018-Feb-11 23:30N 40°39' W 074°04'0 0.4
2018-Feb-11 23:00N 40°39' W 074°04'4 8.2
2018-Feb-11 22:30N 40°42' W 074°01'4 8.6
2018-Feb-11 22:00N 40°39' W 074°04'0 0.0
2018-Feb-11 21:24N 40°39' W 074°04'410.9
2018-Feb-11 21:00N 40°42' W 074°01'4 8.6
2018-Feb-11 20:30N 40°39' W 074°04'0 0.1
2018-Feb-11 20:01N 40°39' W 074°04'4 8.6
2018-Feb-11 19:30N 40°42' W 074°01'4 8.6
2018-Feb-11 19:01N 40°39' W 074°04'0 0.1
2018-Feb-11 18:30N 40°39' W 074°04'4 8.6
2018-Feb-11 18:01N 40°42' W 074°01'4 7.9
2018-Feb-11 17:28N 40°39' W 074°04'0 0.0
2018-Feb-11 16:59N 40°39' W 074°04'4 9.1
2018-Feb-11 16:30N 40°42' W 074°01'4 8.6
2018-Feb-11 16:00N 40°39' W 074°04'4 8.2
2018-Feb-11 15:29N 40°42' W 074°01'4 8.6
2018-Feb-11 14:59N 40°39' W 074°04'4 8.8
2018-Feb-11 14:30N 40°42' W 074°01'4 8.5
2018-Feb-11 14:00N 40°39' W 074°04'4 8.6
2018-Feb-11 13:30N 40°42' W 074°01'4 8.6
2018-Feb-11 13:00N 40°39' W 074°04'0 0.3
2018-Feb-11 12:30N 40°39' W 074°04'0 0.1
2018-Feb-11 11:58N 40°39' W 074°04'0 0.0
2018-Feb-11 11:28N 40°39' W 074°04'0 0.0
2018-Feb-11 10:58N 40°39' W 074°04'0 0.0
2018-Feb-11 10:28N 40°39' W 074°04'0 0.0
2018-Feb-11 09:58N 40°39' W 074°04'0 0.0
2018-Feb-11 09:28N 40°39' W 074°04'0 0.0
2018-Feb-11 08:58N 40°39' W 074°04'0 0.0
2018-Feb-11 08:28N 40°39' W 074°04'0 0.0
2018-Feb-11 07:58N 40°39' W 074°04'0 0.0
2018-Feb-11 07:28N 40°39' W 074°04'0 0.0
2018-Feb-11 06:58N 40°39' W 074°04'0 0.0
2018-Feb-11 06:28N 40°39' W 074°04'0 0.0
2018-Feb-11 05:58N 40°39' W 074°04'0 0.0
2018-Feb-11 05:28N 40°39' W 074°04'0 0.0
2018-Feb-11 04:58N 40°39' W 074°04'0 0.0
2018-Feb-11 04:28N 40°39' W 074°04'0 0.0
2018-Feb-11 03:58N 40°39' W 074°04'0 0.0
2018-Feb-11 03:28N 40°39' W 074°04'0 0.0
2018-Feb-11 02:58N 40°39' W 074°04'0 0.0
2018-Feb-11 02:28N 40°39' W 074°04'0 0.0
2018-Feb-11 02:00N 40°39' W 074°04'0 0.3
2018-Feb-11 01:31N 40°39' W 074°04'0 0.0
2018-Feb-11 01:01N 40°39' W 074°04'4 8.6
2018-Feb-11 00:31N 40°42' W 074°01'4 8.6
2018-Feb-11 00:00N 40°39' W 074°04'0 0.0
2018-Feb-10 23:31N 40°39' W 074°04'4 8.6
2018-Feb-10 23:00N 40°42' W 074°01'4 8.6
2018-Feb-10 22:30N 40°39' W 074°04'0 0.1
2018-Feb-10 22:00N 40°39' W 074°04'4 8.6
2018-Feb-10 21:30N 40°42' W 074°01'4 8.6
2018-Feb-10 21:00N 40°39' W 074°04'0 0.1
2018-Feb-10 20:31N 40°39' W 074°04'4 8.6
2018-Feb-10 20:01N 40°42' W 074°01'4 8.5
2018-Feb-10 19:31N 40°39' W 074°04'0 0.1
2018-Feb-10 18:58N 40°39' W 074°04'4 9.6
2018-Feb-10 18:31N 40°42' W 074°01'4 8.6
2018-Feb-10 18:00N 40°39' W 074°04'0 0.1
2018-Feb-10 17:30N 40°39' W 074°04'4 8.7
2018-Feb-10 17:00N 40°42' W 074°01'4 8.6
2018-Feb-10 16:30N 40°39' W 074°04'0 0.1
2018-Feb-10 16:00N 40°39' W 074°04'0 0.0
2018-Feb-10 15:30N 40°39' W 074°04'0 0.0
2018-Feb-10 15:00N 40°39' W 074°04'0 0.0
2018-Feb-10 14:31N 40°39' W 074°04'0 0.0
2018-Feb-10 13:29N 40°39' W 074°04'0 0.0
2018-Feb-10 12:59N 40°39' W 074°04'0 0.0
2018-Feb-10 12:29N 40°39' W 074°04'0 0.0
2018-Feb-10 11:59N 40°39' W 074°04'0 0.0
2018-Feb-10 11:29N 40°39' W 074°04'0 0.0
2018-Feb-10 10:59N 40°39' W 074°04'0 0.0
2018-Feb-10 10:29N 40°39' W 074°04'0 0.0
2018-Feb-10 09:59N 40°39' W 074°04'0 0.0
2018-Feb-10 09:29N 40°39' W 074°04'0 0.0
2018-Feb-10 08:59N 40°39' W 074°04'0 0.0
2018-Feb-10 08:29N 40°39' W 074°04'0 0.0
2018-Feb-10 07:59N 40°39' W 074°04'0 0.0
2018-Feb-10 07:29N 40°39' W 074°04'0 0.0
2018-Feb-10 06:59N 40°39' W 074°04'0 0.0
2018-Feb-10 06:29N 40°39' W 074°04'0 0.0
2018-Feb-10 05:59N 40°39' W 074°04'0 0.0
2018-Feb-10 05:29N 40°39' W 074°04'0 0.0
2018-Feb-10 04:59N 40°39' W 074°04'4 8.9
2018-Feb-10 04:30N 40°42' W 074°01'4 8.5
2018-Feb-10 04:00N 40°39' W 074°04'0 0.0
2018-Feb-10 03:30N 40°39' W 074°04'4 8.6
2018-Feb-10 03:00N 40°42' W 074°01'4 8.6
2018-Feb-10 02:31N 40°39' W 074°04'0 0.0
2018-Feb-10 02:01N 40°39' W 074°04'0 0.0
2018-Feb-10 01:30N 40°39' W 074°04'4 8.6
2018-Feb-10 01:00N 40°42' W 074°01'4 8.6
2018-Feb-10 00:31N 40°39' W 074°04'2 3.2
2018-Feb-10 00:00N 40°40' W 074°03'1 2.9
2018-Feb-09 23:30N 40°41' W 074°02'2 3.2
2018-Feb-09 23:00N 40°40' W 074°03'311.9
2018-Feb-09 22:46N 40°42' W 074°01'1 2.4
2018-Feb-09 22:31N 40°42' W 074°01'3 6.8
2018-Feb-09 22:01N 40°39' W 074°04'4 7.6
2018-Feb-09 21:31N 40°42' W 074°01'4 8.3
2018-Feb-09 21:00N 40°39' W 074°04'0 0.0
2018-Feb-09 16:01N 40°39' W 074°04'4 8.6
2018-Feb-09 15:31N 40°42' W 074°01'3 2.5
2018-Feb-09 14:30N 40°40' W 074°03'1 2.1
2018-Feb-09 14:00N 40°41' W 074°02'2 3.5
2018-Feb-09 13:30N 40°39' W 074°03'2 3.7
2018-Feb-09 13:01N 40°41' W 074°02'3 5.1
2018-Feb-09 12:31N 40°39' W 074°04'4 7.2
2018-Feb-09 12:00N 40°42' W 074°01'4 8.0
2018-Feb-09 11:30N 40°39' W 074°04'0 0.0
2018-Feb-09 10:00N 40°39' W 074°04'0 0.0
2018-Feb-09 09:30N 40°39' W 074°04'0 0.0
2018-Feb-09 05:01N 40°39' W 074°04'4 8.6
2018-Feb-09 04:30N 40°42' W 074°01'0 0.0
2018-Feb-09 03:00N 40°42' W 074°01'4 4.3
2018-Feb-09 02:00N 40°39' W 074°04'0 0.0
2018-Feb-09 01:30N 40°39' W 074°04'4 8.6
2018-Feb-09 01:01N 40°42' W 074°01'4 8.6
2018-Feb-09 00:30N 40°39' W 074°04'3 3.2
2018-Feb-08 23:31N 40°41' W 074°02'1 0.5
2018-Feb-08 22:30N 40°42' W 074°02'3 6.9
2018-Feb-08 22:00N 40°39' W 074°04'0 0.3
2018-Feb-08 21:00N 40°39' W 074°04'0 0.0
2018-Feb-08 20:30N 40°39' W 074°04'0 0.0
2018-Feb-08 20:00N 40°39' W 074°04'0 0.0
2018-Feb-08 19:30N 40°39' W 074°04'0 0.0
2018-Feb-08 19:00N 40°39' W 074°04'0 0.0
2018-Feb-08 18:30N 40°39' W 074°04'0 0.0
2018-Feb-08 17:30N 40°39' W 074°04'4 8.6
2018-Feb-08 17:00N 40°42' W 074°01'4 4.3
2018-Feb-08 16:00N 40°39' W 074°04'4 8.6
2018-Feb-08 15:30N 40°42' W 074°01'2 1.2
2018-Feb-08 14:00N 40°41' W 074°02'1 1.0
2018-Feb-08 13:30N 40°40' W 074°03'2 1.9
2018-Feb-08 12:30N 40°39' W 074°04'0 0.1
2018-Feb-08 11:30N 40°39' W 074°04'0 0.0
2018-Feb-08 11:00N 40°39' W 074°04'0 0.0
2018-Feb-08 10:30N 40°39' W 074°04'0 0.0
2018-Feb-08 10:00N 40°39' W 074°04'0 0.0
2018-Feb-08 06:00N 40°39' W 074°04'0 0.0
2018-Feb-08 05:30N 40°39' W 074°04'0 0.0
2018-Feb-08 05:00N 40°39' W 074°04'0 0.1
2018-Feb-08 04:00N 40°39' W 074°04'0 0.0
2018-Feb-08 02:00N 40°39' W 074°04'0 0.1
2018-Feb-08 01:30N 40°39' W 074°04'  
Track history (hours):
 
Tides and Currents Weather Stations Pressure Air Temp Water Temp Dewpoint Dewpoint Depression Visibility Wind Speed Wind Dir Waves Ship Positions

Spirit Of America

Owner: CITY OF NEW YORK, Brooklyn, NY. More information available from US FCC via Universal Licensing System and Coast Guard Vessel Documentation Center.

Last reported at 2018-Feb-18 01:30 UTC. Time now 2018-Feb-18 01:49 UTC.
Position N 40°42' W 074°01'.

Length 104 m; draft 4 m.

Type: Passenger vessel. MMSI: 366902394.

Date/timePositionNaut miles runAvg speedWind from/ knotsBaromVisibWave heightAir tempDewpointWater temp
2018-Feb-18 01:30N 40°42' W 074°01'4 8.6
2018-Feb-18 01:00N 40°39' W 074°04'0 0.1
2018-Feb-18 00:30N 40°39' W 074°04'4 8.6
2018-Feb-18 00:00N 40°42' W 074°01'4 8.6
2018-Feb-17 23:30N 40°39' W 074°04'0 0.0
2018-Feb-17 23:00N 40°39' W 074°04'4 8.6
2018-Feb-17 22:30N 40°42' W 074°01'4 8.5
2018-Feb-17 22:00N 40°39' W 074°04'0 0.1
2018-Feb-17 21:30N 40°39' W 074°04'4 8.6
2018-Feb-17 21:00N 40°42' W 074°01'4 8.6
2018-Feb-17 20:30N 40°39' W 074°04'0 0.1
2018-Feb-17 20:00N 40°39' W 074°04'4 8.7
2018-Feb-17 19:30N 40°42' W 074°01'4 8.6
2018-Feb-17 19:01N 40°39' W 074°04'0 0.0
2018-Feb-17 18:30N 40°39' W 074°04'4 8.6
2018-Feb-17 18:00N 40°42' W 074°01'4 8.6
2018-Feb-17 17:30N 40°39' W 074°04'0 0.0
2018-Feb-17 17:00N 40°39' W 074°04'4 8.7
2018-Feb-17 16:30N 40°42' W 074°01'4 8.4
2018-Feb-17 16:00N 40°39' W 074°04'4 8.8
2018-Feb-17 15:31N 40°42' W 074°01'4 8.4
2018-Feb-17 15:00N 40°39' W 074°04'4 8.7
2018-Feb-17 14:30N 40°42' W 074°01'4 8.6
2018-Feb-17 14:00N 40°39' W 074°04'4 8.6
2018-Feb-17 13:31N 40°42' W 074°01'4 8.5
2018-Feb-17 13:00N 40°39' W 074°04'0 0.1
2018-Feb-17 12:30N 40°39' W 074°04'0 0.0
2018-Feb-17 12:00N 40°39' W 074°04'0 0.0
2018-Feb-17 11:31N 40°39' W 074°04'0 0.0
2018-Feb-17 10:59N 40°39' W 074°04'0 0.0
2018-Feb-17 10:29N 40°39' W 074°04'0 0.0
2018-Feb-17 09:59N 40°39' W 074°04'0 0.0
2018-Feb-17 09:29N 40°39' W 074°04'0 0.0
2018-Feb-17 08:59N 40°39' W 074°04'0 0.0
2018-Feb-17 08:29N 40°39' W 074°04'0 0.0
2018-Feb-17 07:59N 40°39' W 074°04'0 0.0
2018-Feb-17 07:29N 40°39' W 074°04'0 0.0
2018-Feb-17 06:59N 40°39' W 074°04'0 0.0
2018-Feb-17 06:29N 40°39' W 074°04'0 0.0
2018-Feb-17 05:59N 40°39' W 074°04'0 0.0
2018-Feb-17 05:30N 40°39' W 074°04'0 0.0
2018-Feb-17 05:00N 40°39' W 074°04'4 8.5
2018-Feb-17 04:30N 40°42' W 074°01'4 8.6
2018-Feb-17 04:00N 40°39' W 074°04'0 0.0
2018-Feb-17 03:31N 40°39' W 074°04'4 8.6
2018-Feb-17 03:00N 40°42' W 074°01'4 8.5
2018-Feb-17 02:30N 40°39' W 074°04'0 0.0
2018-Feb-17 02:01N 40°39' W 074°04'0 0.0
2018-Feb-17 01:31N 40°39' W 074°04'4 8.5
2018-Feb-17 01:00N 40°42' W 074°01'4 8.5
2018-Feb-17 00:31N 40°39' W 074°04'1 3.0
2018-Feb-17 00:01N 40°40' W 074°03'1 1.8
2018-Feb-16 23:31N 40°41' W 074°02'1 1.2
2018-Feb-16 23:00N 40°40' W 074°03'2 3.3
2018-Feb-16 22:31N 40°41' W 074°02'3 6.6
2018-Feb-16 22:00N 40°39' W 074°04'4 7.4
2018-Feb-16 21:31N 40°42' W 074°01'4 7.7
2018-Feb-16 21:00N 40°39' W 074°04'0 0.3
2018-Feb-16 20:31N 40°39' W 074°04'0 0.3
2018-Feb-16 20:00N 40°39' W 074°04'0 0.0
2018-Feb-16 19:30N 40°39' W 074°04'0 0.0
2018-Feb-16 19:00N 40°39' W 074°04'4 8.7
2018-Feb-16 18:30N 40°42' W 074°01'4 8.6
2018-Feb-16 18:00N 40°39' W 074°04'0 0.0
2018-Feb-16 17:30N 40°39' W 074°04'4 8.6
2018-Feb-16 17:00N 40°42' W 074°01'4 8.7
2018-Feb-16 16:30N 40°39' W 074°04'0 0.0
2018-Feb-16 16:00N 40°39' W 074°04'4 8.7
2018-Feb-16 15:30N 40°42' W 074°01'4 8.7
2018-Feb-16 15:01N 40°39' W 074°04'4 7.9
2018-Feb-16 14:31N 40°42' W 074°01'1 2.9
2018-Feb-16 14:01N 40°41' W 074°02'1 1.0
2018-Feb-16 13:30N 40°40' W 074°03'1 2.4
2018-Feb-16 13:00N 40°41' W 074°02'3 5.5
2018-Feb-16 12:30N 40°39' W 074°04'4 7.6
2018-Feb-16 12:01N 40°42' W 074°01'4 8.3
2018-Feb-16 11:30N 40°39' W 074°04'0 0.0
2018-Feb-16 10:56N 40°39' W 074°04'0 0.0
2018-Feb-16 10:30N 40°39' W 074°04'0 0.0
2018-Feb-16 10:00N 40°39' W 074°04'0 0.0
2018-Feb-16 09:30N 40°39' W 074°04'0 0.0
2018-Feb-16 08:58N 40°39' W 074°04'0 0.0
2018-Feb-16 08:28N 40°39' W 074°04'0 0.0
2018-Feb-16 07:58N 40°39' W 074°04'0 0.0
2018-Feb-16 07:28N 40°39' W 074°04'0 0.0
2018-Feb-16 06:58N 40°39' W 074°04'0 0.0
2018-Feb-16 06:28N 40°39' W 074°04'0 0.0
2018-Feb-16 05:58N 40°39' W 074°04'0 0.1
2018-Feb-16 05:31N 40°39' W 074°04'0 0.1
2018-Feb-16 05:00N 40°39' W 074°04'4 8.6
2018-Feb-16 04:30N 40°42' W 074°01'4 8.6
2018-Feb-16 04:01N 40°39' W 074°04'0 0.1
2018-Feb-16 03:31N 40°39' W 074°04'4 8.6
2018-Feb-16 03:01N 40°42' W 074°01'4 8.4
2018-Feb-16 02:30N 40°39' W 074°04'0 0.1
2018-Feb-16 02:00N 40°39' W 074°04'0 0.1
2018-Feb-16 01:30N 40°39' W 074°04'4 8.6
2018-Feb-16 01:00N 40°42' W 074°01'4 8.5
2018-Feb-16 00:30N 40°39' W 074°04'2 4.3
2018-Feb-16 00:00N 40°40' W 074°03'1 1.8
2018-Feb-15 23:31N 40°41' W 074°02'2 3.7
2018-Feb-15 23:00N 40°40' W 074°03'2 4.8
2018-Feb-15 22:31N 40°42' W 074°02'3 6.8
2018-Feb-15 22:01N 40°39' W 074°04'4 7.6
2018-Feb-15 21:31N 40°42' W 074°01'4 1.9
2018-Feb-15 19:25N 40°39' W 074°04'4 7.6
2018-Feb-15 18:52N 40°42' W 074°01'411.9
2018-Feb-15 18:30N 40°39' W 074°04'4 8.6
2018-Feb-15 18:00N 40°42' W 074°01'4 8.5
2018-Feb-15 17:30N 40°39' W 074°04'4 8.6
2018-Feb-15 17:00N 40°42' W 074°01'4 8.5
2018-Feb-15 16:30N 40°39' W 074°04'4 8.6
2018-Feb-15 16:00N 40°42' W 074°01'4 8.6
2018-Feb-15 15:30N 40°39' W 074°04'0 0.0
2018-Feb-15 15:00N 40°39' W 074°04'1 2.8
2018-Feb-15 14:30N 40°40' W 074°03'2 3.4
2018-Feb-15 14:00N 40°41' W 074°02'1 2.8
2018-Feb-15 13:30N 40°40' W 074°03'1 2.5
2018-Feb-15 13:01N 40°41' W 074°02'2 4.9
2018-Feb-15 12:31N 40°39' W 074°04'4 7.4
2018-Feb-15 12:01N 40°42' W 074°01'4 8.1
2018-Feb-15 11:30N 40°39' W 074°04'0 0.0
2018-Feb-15 11:00N 40°39' W 074°04'0 0.0
2018-Feb-15 10:30N 40°39' W 074°04'0 0.0
2018-Feb-15 10:00N 40°39' W 074°04'0 0.0
2018-Feb-15 09:30N 40°39' W 074°04'0 0.0
2018-Feb-15 08:59N 40°39' W 074°04'0 0.0
2018-Feb-15 08:29N 40°39' W 074°04'0 0.0
2018-Feb-15 07:59N 40°39' W 074°04'0 0.0
2018-Feb-15 07:29N 40°39' W 074°04'0 0.0
2018-Feb-15 06:59N 40°39' W 074°04'0 0.0
2018-Feb-15 06:29N 40°39' W 074°04'0 0.0
2018-Feb-15 05:59N 40°39' W 074°04'0 0.0
2018-Feb-15 05:30N 40°39' W 074°04'0 0.0
2018-Feb-15 05:00N 40°39' W 074°04'4 8.5
2018-Feb-15 04:30N 40°42' W 074°01'4 8.5
2018-Feb-15 04:00N 40°39' W 074°04'0 0.1
2018-Feb-15 03:30N 40°39' W 074°04'4 8.6
2018-Feb-15 03:00N 40°42' W 074°01'4 8.5
2018-Feb-15 02:30N 40°39' W 074°04'0 0.1
2018-Feb-15 02:00N 40°39' W 074°04'0 0.0
2018-Feb-15 01:30N 40°39' W 074°04'4 8.5
2018-Feb-15 01:00N 40°42' W 074°01'4 8.6
2018-Feb-15 00:30N 40°39' W 074°04'4 8.6
2018-Feb-15 00:00N 40°42' W 074°01'2 3.0
2018-Feb-14 23:30N 40°41' W 074°02'1 2.9
2018-Feb-14 23:00N 40°40' W 074°03'2 4.4
2018-Feb-14 22:30N 40°42' W 074°02'3 6.5
2018-Feb-14 22:00N 40°39' W 074°04'4 7.7
2018-Feb-14 21:31N 40°42' W 074°01'4 8.2
2018-Feb-14 21:01N 40°39' W 074°04'0 0.0
2018-Feb-14 20:31N 40°39' W 074°04'0 0.0
2018-Feb-14 20:01N 40°39' W 074°04'0 0.0
2018-Feb-14 19:31N 40°39' W 074°04'0 0.0
2018-Feb-14 19:01N 40°39' W 074°04'0 0.0
2018-Feb-14 18:30N 40°39' W 074°04'4 8.7
2018-Feb-14 18:00N 40°42' W 074°01'4 8.5
2018-Feb-14 17:30N 40°39' W 074°04'4 7.7
2018-Feb-14 16:57N 40°42' W 074°01'4 9.7
2018-Feb-14 16:30N 40°39' W 074°04'4 8.7
2018-Feb-14 16:00N 40°42' W 074°01'4 8.7
2018-Feb-14 15:31N 40°39' W 074°04'0 0.0
2018-Feb-14 15:00N 40°39' W 074°04'2 3.8
2018-Feb-14 14:30N 40°40' W 074°03'1 1.8
2018-Feb-14 14:01N 40°41' W 074°02'1 2.4
2018-Feb-14 13:31N 40°40' W 074°03'2 3.2
2018-Feb-14 13:00N 40°41' W 074°02'3 5.8
2018-Feb-14 12:30N 40°39' W 074°04'4 8.0
2018-Feb-14 12:00N 40°42' W 074°01'4 8.5
2018-Feb-14 11:30N 40°39' W 074°04'0 0.0
2018-Feb-14 11:00N 40°39' W 074°04'0 0.0
2018-Feb-14 10:30N 40°39' W 074°04'0 0.0
2018-Feb-14 10:00N 40°39' W 074°04'0 0.0
2018-Feb-14 09:30N 40°39' W 074°04'0 0.1
2018-Feb-14 08:59N 40°39' W 074°04'0 0.0
2018-Feb-14 08:29N 40°39' W 074°04'0 0.0
2018-Feb-14 07:59N 40°39' W 074°04'0 0.0
2018-Feb-14 07:29N 40°39' W 074°04'0 0.0
2018-Feb-14 06:59N 40°39' W 074°04'0 0.0
2018-Feb-14 06:29N 40°39' W 074°04'0 0.0
2018-Feb-14 05:59N 40°39' W 074°04'0 0.0
2018-Feb-14 05:29N 40°39' W 074°04'0 0.0
2018-Feb-14 04:57N 40°39' W 074°04'4 9.8
2018-Feb-14 04:30N 40°42' W 074°01'4 8.6
2018-Feb-14 04:01N 40°39' W 074°04'0 0.0
2018-Feb-14 03:31N 40°39' W 074°04'4 8.6
2018-Feb-14 03:00N 40°42' W 074°01'4 8.5
2018-Feb-14 02:30N 40°39' W 074°04'0 0.0
2018-Feb-14 02:00N 40°39' W 074°04'0 0.0
2018-Feb-14 01:30N 40°39' W 074°04'4 8.6
2018-Feb-14 01:00N 40°42' W 074°01'4 8.5
2018-Feb-14 00:30N 40°39' W 074°04'3 6.8
2018-Feb-14 00:00N 40°41' W 074°02'1 1.3
2018-Feb-13 23:30N 40°41' W 074°02'1 2.0
2018-Feb-13 23:00N 40°40' W 074°03'2 3.6
2018-Feb-13 22:31N 40°42' W 074°02'3 6.2
2018-Feb-13 22:00N 40°39' W 074°04'0 0.5
2018-Feb-13 21:01N 40°39' W 074°04'0 0.1
2018-Feb-13 20:30N 40°39' W 074°04'0 0.1
2018-Feb-13 20:01N 40°39' W 074°04'0 0.1
2018-Feb-13 19:30N 40°39' W 074°04'0 0.0
2018-Feb-13 19:00N 40°39' W 074°04'0 0.0
2018-Feb-13 18:30N 40°39' W 074°04'4 8.6
2018-Feb-13 18:00N 40°42' W 074°01'4 8.6
2018-Feb-13 17:31N 40°39' W 074°04'4 8.5
2018-Feb-13 17:00N 40°42' W 074°01'4 8.6
2018-Feb-13 16:30N 40°39' W 074°04'0 0.3
2018-Feb-13 15:48N 40°39' W 074°04'412.9
2018-Feb-13 15:29N 40°42' W 074°01'4 9.0
2018-Feb-13 15:00N 40°39' W 074°04'2 3.8
2018-Feb-13 14:31N 40°40' W 074°03'1 1.4
2018-Feb-13 14:00N 40°41' W 074°02'1 1.3
2018-Feb-13 13:30N 40°40' W 074°03'1 1.9
2018-Feb-13 13:01N 40°41' W 074°02'2 3.2
2018-Feb-13 12:31N 40°40' W 074°03'2 4.2
2018-Feb-13 12:00N 40°41' W 074°02'3 3.7
2018-Feb-13 11:04N 40°39' W 074°04'0 1.6
2018-Feb-13 11:01N 40°39' W 074°04'1 1.5
2018-Feb-13 10:31N 40°38' W 074°04'1 1.6
2018-Feb-13 10:00N 40°39' W 074°04'0 0.0
2018-Feb-13 09:30N 40°39' W 074°04'0 0.1
2018-Feb-13 08:59N 40°39' W 074°04'0 0.0
2018-Feb-13 08:29N 40°39' W 074°04'0 0.0
2018-Feb-13 07:56N 40°39' W 074°04'0 0.0
2018-Feb-13 07:29N 40°39' W 074°04'0 0.0
2018-Feb-13 06:59N 40°39' W 074°04'0 0.0
2018-Feb-13 06:29N 40°39' W 074°04'0 0.0
2018-Feb-13 05:59N 40°39' W 074°04'0 0.0
2018-Feb-13 05:29N 40°39' W 074°04'0 0.0
2018-Feb-13 05:00N 40°39' W 074°04'4 8.7
2018-Feb-13 04:31N 40°42' W 074°01'4 8.6
2018-Feb-13 04:00N 40°39' W 074°04'0 0.0
2018-Feb-13 03:30N 40°39' W 074°04'4 8.6
2018-Feb-13 03:00N 40°42' W 074°01'4 8.6
2018-Feb-13 02:31N 40°39' W 074°04'0 0.0
2018-Feb-13 02:01N 40°39' W 074°04'0 0.0
2018-Feb-13 01:31N 40°39' W 074°04'4 8.6
2018-Feb-13 01:00N 40°42' W 074°01'4 8.5
2018-Feb-13 00:30N 40°39' W 074°04'3 5.0
2018-Feb-13 00:00N 40°41' W 074°02'1 2.2
2018-Feb-12 23:30N 40°40' W 074°03'1 1.7
2018-Feb-12 23:00N 40°41' W 074°03'0 0.7
2018-Feb-12 22:31N 40°41' W 074°02'1 2.9
2018-Feb-12 22:00N 40°39' W 074°03'2 4.0
2018-Feb-12 21:30N 40°41' W 074°02'3 6.3
2018-Feb-12 21:00N 40°39' W 074°04'0 0.0
2018-Feb-12 20:30N 40°39' W 074°04'0 0.0
2018-Feb-12 20:00N 40°39' W 074°04'0 0.0
2018-Feb-12 19:30N 40°39' W 074°04'0 0.0
2018-Feb-12 19:00N 40°39' W 074°04'0 0.0
2018-Feb-12 18:31N 40°39' W 074°04'4 6.8
2018-Feb-12 17:53N 40°42' W 074°01'411.4
2018-Feb-12 17:30N 40°39' W 074°04'4 6.8
2018-Feb-12 16:53N 40°42' W 074°01'411.3
2018-Feb-12 16:31N 40°39' W 074°04'0 0.0
2018-Feb-12 16:00N 40°39' W 074°04'0 0.0
2018-Feb-12 15:31N 40°39' W 074°04'0 0.0
2018-Feb-12 15:01N 40°39' W 074°04'2 4.5
2018-Feb-12 14:30N 40°40' W 074°03'1 1.3
2018-Feb-12 14:00N 40°41' W 074°02'1 2.8
2018-Feb-12 13:30N 40°40' W 074°03'1 2.9
2018-Feb-12 13:01N 40°41' W 074°02'3 5.6
2018-Feb-12 12:30N 40°39' W 074°04'4 8.2
2018-Feb-12 12:01N 40°42' W 074°01'4 8.4
2018-Feb-12 11:30N 40°39' W 074°04'0 0.0
2018-Feb-12 11:00N 40°39' W 074°04'0 0.0
2018-Feb-12 10:30N 40°39' W 074°04'0 0.0
2018-Feb-12 10:00N 40°39' W 074°04'0 0.0
2018-Feb-12 09:30N 40°39' W 074°04'0 0.0
2018-Feb-12 09:00N 40°39' W 074°04'0 0.0
2018-Feb-12 05:24N 40°39' W 074°04'410.8
2018-Feb-12 05:00N 40°42' W 074°01'4 8.4
2018-Feb-12 04:30N 40°39' W 074°04'4 8.7
2018-Feb-12 04:00N 40°42' W 074°01'4 8.7
2018-Feb-12 03:30N 40°39' W 074°04'0 0.1
2018-Feb-12 03:01N 40°39' W 074°04'4 8.6
2018-Feb-12 02:30N 40°42' W 074°01'4 8.6
2018-Feb-12 02:01N 40°39' W 074°04'4 8.6
2018-Feb-12 01:30N 40°42' W 074°01'4 8.5
2018-Feb-12 01:00N 40°39' W 074°04'0 0.0
2018-Feb-12 00:30N 40°39' W 074°04'4 8.5
2018-Feb-12 00:00N 40°42' W 074°01'4 8.4
2018-Feb-11 23:30N 40°39' W 074°04'0 0.4
2018-Feb-11 23:00N 40°39' W 074°04'4 8.2
2018-Feb-11 22:30N 40°42' W 074°01'4 8.6
2018-Feb-11 22:00N 40°39' W 074°04'0 0.0
2018-Feb-11 21:24N 40°39' W 074°04'410.9
2018-Feb-11 21:00N 40°42' W 074°01'4 8.6
2018-Feb-11 20:30N 40°39' W 074°04'0 0.1
2018-Feb-11 20:01N 40°39' W 074°04'4 8.6
2018-Feb-11 19:30N 40°42' W 074°01'4 8.6
2018-Feb-11 19:01N 40°39' W 074°04'0 0.1
2018-Feb-11 18:30N 40°39' W 074°04'4 8.6
2018-Feb-11 18:01N 40°42' W 074°01'4 7.9
2018-Feb-11 17:28N 40°39' W 074°04'0 0.0
2018-Feb-11 16:59N 40°39' W 074°04'4 9.1
2018-Feb-11 16:30N 40°42' W 074°01'4 8.6
2018-Feb-11 16:00N 40°39' W 074°04'4 8.2
2018-Feb-11 15:29N 40°42' W 074°01'4 8.6
2018-Feb-11 14:59N 40°39' W 074°04'4 8.8
2018-Feb-11 14:30N 40°42' W 074°01'4 8.5
2018-Feb-11 14:00N 40°39' W 074°04'4 8.6
2018-Feb-11 13:30N 40°42' W 074°01'4 8.6
2018-Feb-11 13:00N 40°39' W 074°04'0 0.3
2018-Feb-11 12:30N 40°39' W 074°04'0 0.1
2018-Feb-11 11:58N 40°39' W 074°04'0 0.0
2018-Feb-11 11:28N 40°39' W 074°04'0 0.0
2018-Feb-11 10:58N 40°39' W 074°04'0 0.0
2018-Feb-11 10:28N 40°39' W 074°04'0 0.0
2018-Feb-11 09:58N 40°39' W 074°04'0 0.0
2018-Feb-11 09:28N 40°39' W 074°04'0 0.0
2018-Feb-11 08:58N 40°39' W 074°04'0 0.0
2018-Feb-11 08:28N 40°39' W 074°04'0 0.0
2018-Feb-11 07:58N 40°39' W 074°04'0 0.0
2018-Feb-11 07:28N 40°39' W 074°04'0 0.0
2018-Feb-11 06:58N 40°39' W 074°04'0 0.0
2018-Feb-11 06:28N 40°39' W 074°04'0 0.0
2018-Feb-11 05:58N 40°39' W 074°04'0 0.0
2018-Feb-11 05:28N 40°39' W 074°04'0 0.0
2018-Feb-11 04:58N 40°39' W 074°04'0 0.0
2018-Feb-11 04:28N 40°39' W 074°04'0 0.0
2018-Feb-11 03:58N 40°39' W 074°04'0 0.0
2018-Feb-11 03:28N 40°39' W 074°04'0 0.0
2018-Feb-11 02:58N 40°39' W 074°04'0 0.0
2018-Feb-11 02:28N 40°39' W 074°04'0 0.0
2018-Feb-11 02:00N 40°39' W 074°04'0 0.3
2018-Feb-11 01:31N 40°39' W 074°04'0 0.0
2018-Feb-11 01:01N 40°39' W 074°04'4 8.6
2018-Feb-11 00:31N 40°42' W 074°01'4 8.6
2018-Feb-11 00:00N 40°39' W 074°04'0 0.0
2018-Feb-10 23:31N 40°39' W 074°04'4 8.6
2018-Feb-10 23:00N 40°42' W 074°01'4 8.6
2018-Feb-10 22:30N 40°39' W 074°04'0 0.1
2018-Feb-10 22:00N 40°39' W 074°04'4 8.6
2018-Feb-10 21:30N 40°42' W 074°01'4 8.6
2018-Feb-10 21:00N 40°39' W 074°04'0 0.1
2018-Feb-10 20:31N 40°39' W 074°04'4 8.6
2018-Feb-10 20:01N 40°42' W 074°01'4 8.5
2018-Feb-10 19:31N 40°39' W 074°04'0 0.1
2018-Feb-10 18:58N 40°39' W 074°04'4 9.6
2018-Feb-10 18:31N 40°42' W 074°01'4 8.6
2018-Feb-10 18:00N 40°39' W 074°04'0 0.1
2018-Feb-10 17:30N 40°39' W 074°04'4 8.7
2018-Feb-10 17:00N 40°42' W 074°01'4 8.6
2018-Feb-10 16:30N 40°39' W 074°04'0 0.1
2018-Feb-10 16:00N 40°39' W 074°04'0 0.0
2018-Feb-10 15:30N 40°39' W 074°04'0 0.0
2018-Feb-10 15:00N 40°39' W 074°04'0 0.0
2018-Feb-10 14:31N 40°39' W 074°04'0 0.0
2018-Feb-10 13:29N 40°39' W 074°04'0 0.0
2018-Feb-10 12:59N 40°39' W 074°04'0 0.0
2018-Feb-10 12:29N 40°39' W 074°04'0 0.0
2018-Feb-10 11:59N 40°39' W 074°04'0 0.0
2018-Feb-10 11:29N 40°39' W 074°04'0 0.0
2018-Feb-10 10:59N 40°39' W 074°04'0 0.0
2018-Feb-10 10:29N 40°39' W 074°04'0 0.0
2018-Feb-10 09:59N 40°39' W 074°04'0 0.0
2018-Feb-10 09:29N 40°39' W 074°04'0 0.0
2018-Feb-10 08:59N 40°39' W 074°04'0 0.0
2018-Feb-10 08:29N 40°39' W 074°04'0 0.0
2018-Feb-10 07:59N 40°39' W 074°04'0 0.0
2018-Feb-10 07:29N 40°39' W 074°04'0 0.0
2018-Feb-10 06:59N 40°39' W 074°04'0 0.0
2018-Feb-10 06:29N 40°39' W 074°04'0 0.0
2018-Feb-10 05:59N 40°39' W 074°04'0 0.0
2018-Feb-10 05:29N 40°39' W 074°04'0 0.0
2018-Feb-10 04:59N 40°39' W 074°04'4 8.9
2018-Feb-10 04:30N 40°42' W 074°01'4 8.5
2018-Feb-10 04:00N 40°39' W 074°04'0 0.0
2018-Feb-10 03:30N 40°39' W 074°04'4 8.6
2018-Feb-10 03:00N 40°42' W 074°01'4 8.6
2018-Feb-10 02:31N 40°39' W 074°04'0 0.0
2018-Feb-10 02:01N 40°39' W 074°04'0 0.0
2018-Feb-10 01:30N 40°39' W 074°04'4 8.6
2018-Feb-10 01:00N 40°42' W 074°01'4 8.6
2018-Feb-10 00:31N 40°39' W 074°04'2 3.2
2018-Feb-10 00:00N 40°40' W 074°03'1 2.9
2018-Feb-09 23:30N 40°41' W 074°02'2 3.2
2018-Feb-09 23:00N 40°40' W 074°03'311.9
2018-Feb-09 22:46N 40°42' W 074°01'1 2.4
2018-Feb-09 22:31N 40°42' W 074°01'3 6.8
2018-Feb-09 22:01N 40°39' W 074°04'4 7.6
2018-Feb-09 21:31N 40°42' W 074°01'4 8.3
2018-Feb-09 21:00N 40°39' W 074°04'0 0.0
2018-Feb-09 16:01N 40°39' W 074°04'4 8.6
2018-Feb-09 15:31N 40°42' W 074°01'3 2.5
2018-Feb-09 14:30N 40°40' W 074°03'1 2.1
2018-Feb-09 14:00N 40°41' W 074°02'2 3.5
2018-Feb-09 13:30N 40°39' W 074°03'2 3.7
2018-Feb-09 13:01N 40°41' W 074°02'3 5.1
2018-Feb-09 12:31N 40°39' W 074°04'4 7.2
2018-Feb-09 12:00N 40°42' W 074°01'4 8.0
2018-Feb-09 11:30N 40°39' W 074°04'0 0.0
2018-Feb-09 10:00N 40°39' W 074°04'0 0.0
2018-Feb-09 09:30N 40°39' W 074°04'0 0.0
2018-Feb-09 05:01N 40°39' W 074°04'4 8.6
2018-Feb-09 04:30N 40°42' W 074°01'0 0.0
2018-Feb-09 03:00N 40°42' W 074°01'4 4.3
2018-Feb-09 02:00N 40°39' W 074°04'0 0.0
2018-Feb-09 01:30N 40°39' W 074°04'4 8.6
2018-Feb-09 01:01N 40°42' W 074°01'4 8.6
2018-Feb-09 00:30N 40°39' W 074°04'3 3.2
2018-Feb-08 23:31N 40°41' W 074°02'1 0.5
2018-Feb-08 22:30N 40°42' W 074°02'3 6.9
2018-Feb-08 22:00N 40°39' W 074°04'0 0.3
2018-Feb-08 21:00N 40°39' W 074°04'0 0.0
2018-Feb-08 20:30N 40°39' W 074°04'0 0.0
2018-Feb-08 20:00N 40°39' W 074°04'0 0.0
2018-Feb-08 19:30N 40°39' W 074°04'0 0.0
2018-Feb-08 19:00N 40°39' W 074°04'0 0.0
2018-Feb-08 18:30N 40°39' W 074°04'0 0.0
2018-Feb-08 17:30N 40°39' W 074°04'4 8.6
2018-Feb-08 17:00N 40°42' W 074°01'4 4.3
2018-Feb-08 16:00N 40°39' W 074°04'4 8.6
2018-Feb-08 15:30N 40°42' W 074°01'2 1.2
2018-Feb-08 14:00N 40°41' W 074°02'1 1.0
2018-Feb-08 13:30N 40°40' W 074°03'2 1.9
2018-Feb-08 12:30N 40°39' W 074°04'0 0.1
2018-Feb-08 11:30N 40°39' W 074°04'0 0.0
2018-Feb-08 11:00N 40°39' W 074°04'0 0.0
2018-Feb-08 10:30N 40°39' W 074°04'0 0.0
2018-Feb-08 10:00N 40°39' W 074°04'0 0.0
2018-Feb-08 06:00N 40°39' W 074°04'0 0.0
2018-Feb-08 05:30N 40°39' W 074°04'0 0.0
2018-Feb-08 05:00N 40°39' W 074°04'0 0.1
2018-Feb-08 04:00N 40°39' W 074°04'0 0.0
2018-Feb-08 02:00N 40°39' W 074°04'0 0.1
2018-Feb-08 01:30N 40°39' W 074°04'  

Dump ship's entire track history